KREO/REO METAR and TAF weather

Enter ICAO airport designator
Station Type Date Time Source
KREO METAR 2022/01/19 17:52 UTC NOAA

KREO 191752Z AUTO 24005KT M03/M04 A3032 RMK AO1 SLP297 T10281044 11028 21056 51016


Station Type Date Time Source
KREO Decoded METAR 2022/01/19 17:52 UTC NOAA

ROME, OR, United States (KREO) 42-35N 117-52W 1235M
Jan 19, 2022 - 12:52 PM EST / 2022.01.19 1752 UTC
Wind: from the WSW (240 degrees) at 6 MPH (5 KT):0
Temperature: 27.0 F (-2.8 C)
Windchill: 19 F (-7 C):1
Dew Point: 24.1 F (-4.4 C)
Relative Humidity: 88%
Pressure (altimeter): 30.32 in. Hg (1026 hPa)
Pressure tendency: 0.05 inches (1.6 hPa) higher than three hours ago
ob: KREO 191752Z AUTO 24005KT M03/M04 A3032 RMK AO1 SLP297 T10281044 11028 21056 51016
cycle: 18

Station Type Date Time Source
KREO TAF UTC NOAA

Error!

Example: see airport list